createdAt,value
2022-12-27T00:00:43.000Z,99007
2022-12-27T00:02:10.000Z,99011
2022-12-27T00:04:17.000Z,99014
2022-12-27T00:07:08.000Z,99011
2022-12-27T00:08:34.000Z,99009
2022-12-27T00:10:40.000Z,99007
2022-12-27T00:12:07.000Z,99010
2022-12-27T00:14:13.000Z,99009
2022-12-27T00:15:39.000Z,99017
2022-12-27T00:17:45.000Z,99017
2022-12-27T00:19:12.000Z,99017
2022-12-27T00:21:18.000Z,99021
2022-12-27T00:22:45.000Z,99022
2022-12-27T00:24:51.000Z,99026
2022-12-27T00:26:17.000Z,99026
2022-12-27T00:28:23.000Z,99023
2022-12-27T00:29:50.000Z,99020
2022-12-27T00:31:56.000Z,99019
2022-12-27T00:33:23.000Z,99017
2022-12-27T00:35:29.000Z,99017
2022-12-27T00:36:55.000Z,99017
2022-12-27T00:39:01.000Z,99017
2022-12-27T00:40:28.000Z,99024
2022-12-27T00:42:34.000Z,99023
2022-12-27T00:45:25.000Z,99023
2022-12-27T00:46:52.000Z,99020
2022-12-27T00:48:58.000Z,99026
2022-12-27T00:50:25.000Z,99020
2022-12-27T00:52:31.000Z,99022
2022-12-27T00:53:57.000Z,99026
2022-12-27T00:56:03.000Z,99020
2022-12-27T00:57:30.000Z,99025
2022-12-27T00:59:36.000Z,99026
2022-12-27T01:01:03.000Z,99031
2022-12-27T01:03:09.000Z,99036
2022-12-27T01:04:35.000Z,99039
2022-12-27T01:06:41.000Z,99035
2022-12-27T01:08:08.000Z,99038
2022-12-27T01:10:14.000Z,99043
2022-12-27T01:11:41.000Z,99042
2022-12-27T01:13:47.000Z,99045
2022-12-27T01:15:13.000Z,99050
2022-12-27T01:17:19.000Z,99051
2022-12-27T01:18:46.000Z,99050
2022-12-27T01:20:52.000Z,99051
2022-12-27T01:23:43.000Z,99060
2022-12-27T01:25:10.000Z,99060
2022-12-27T01:27:16.000Z,99063
2022-12-27T01:28:42.000Z,99063
2022-12-27T01:30:49.000Z,99056
2022-12-27T01:32:15.000Z,99062
2022-12-27T01:34:21.000Z,99060
2022-12-27T01:35:48.000Z,99063
2022-12-27T01:37:54.000Z,99064
2022-12-27T01:39:20.000Z,99064
2022-12-27T01:41:26.000Z,99059
2022-12-27T01:42:53.000Z,99058
2022-12-27T01:44:59.000Z,99056
2022-12-27T01:46:26.000Z,99061
2022-12-27T01:48:32.000Z,99055
2022-12-27T01:49:58.000Z,99061
2022-12-27T01:52:04.000Z,99061
2022-12-27T01:53:31.000Z,99061
2022-12-27T01:55:37.000Z,99066
2022-12-27T01:57:04.000Z,99069
2022-12-27T01:59:10.000Z,99067
2022-12-27T02:02:01.000Z,99076
2022-12-27T02:03:28.000Z,99073
2022-12-27T02:05:34.000Z,99080
2022-12-27T02:07:01.000Z,99079
2022-12-27T02:09:07.000Z,99089
2022-12-27T02:10:33.000Z,99087
2022-12-27T02:12:39.000Z,99087
2022-12-27T02:14:06.000Z,99091
2022-12-27T02:16:12.000Z,99090
2022-12-27T02:17:39.000Z,99091
2022-12-27T02:19:45.000Z,99096
2022-12-27T02:21:11.000Z,99094
2022-12-27T02:23:17.000Z,99093
2022-12-27T02:24:44.000Z,99092
2022-12-27T02:26:50.000Z,99096
2022-12-27T02:28:17.000Z,99098
2022-12-27T02:30:23.000Z,99100
2022-12-27T02:31:50.000Z,99099
2022-12-27T02:33:56.000Z,99103
2022-12-27T02:35:22.000Z,99099
2022-12-27T02:37:28.000Z,99099
2022-12-27T02:40:20.000Z,99106
2022-12-27T02:41:46.000Z,99110
2022-12-27T02:43:52.000Z,99109
2022-12-27T02:45:19.000Z,99113
2022-12-27T02:47:25.000Z,99108
2022-12-27T02:48:51.000Z,99106
2022-12-27T02:50:58.000Z,99103
2022-12-27T02:52:24.000Z,99104
2022-12-27T02:54:30.000Z,99106
2022-12-27T02:55:57.000Z,99105
2022-12-27T02:58:03.000Z,99101
2022-12-27T02:59:29.000Z,99100
2022-12-27T03:01:36.000Z,99098
2022-12-27T03:03:02.000Z,99100
2022-12-27T03:05:09.000Z,99099
2022-12-27T03:06:35.000Z,99097
2022-12-27T03:08:41.000Z,99101
2022-12-27T03:10:08.000Z,99098
2022-12-27T03:12:14.000Z,99098
2022-12-27T03:13:40.000Z,99096
2022-12-27T03:15:47.000Z,99099
2022-12-27T03:18:38.000Z,99096
2022-12-27T03:20:04.000Z,99097
2022-12-27T03:22:11.000Z,99098
2022-12-27T03:23:37.000Z,99098
2022-12-27T03:25:43.000Z,99099
2022-12-27T03:27:10.000Z,99101
2022-12-27T03:29:16.000Z,99104
2022-12-27T03:30:42.000Z,99111
2022-12-27T03:32:49.000Z,99112
2022-12-27T03:34:15.000Z,99112
2022-12-27T03:36:21.000Z,99105
2022-12-27T03:37:48.000Z,99114
2022-12-27T03:39:54.000Z,99116
2022-12-27T03:41:20.000Z,99113
2022-12-27T03:43:27.000Z,99105
2022-12-27T03:44:53.000Z,99106
2022-12-27T03:46:59.000Z,99102
2022-12-27T03:48:26.000Z,99102
2022-12-27T03:50:32.000Z,99099
2022-12-27T03:51:58.000Z,99101
2022-12-27T03:54:05.000Z,99104
2022-12-27T03:56:56.000Z,99113
2022-12-27T03:58:22.000Z,99113
2022-12-27T04:00:28.000Z,99116
2022-12-27T04:01:55.000Z,99122
2022-12-27T04:04:01.000Z,99122
2022-12-27T04:05:28.000Z,99120
2022-12-27T04:07:34.000Z,99118
2022-12-27T04:09:00.000Z,99119
2022-12-27T04:11:06.000Z,99125
2022-12-27T04:12:33.000Z,99122
2022-12-27T04:14:39.000Z,99122
2022-12-27T04:16:06.000Z,99120
2022-12-27T04:18:12.000Z,99125
2022-12-27T04:19:38.000Z,99120
2022-12-27T04:21:44.000Z,99117
2022-12-27T04:23:11.000Z,99122
2022-12-27T04:25:17.000Z,99117
2022-12-27T04:26:43.000Z,99121
2022-12-27T04:28:50.000Z,99117
2022-12-27T04:30:16.000Z,99114
2022-12-27T04:32:22.000Z,99113
2022-12-27T04:35:14.000Z,99117
2022-12-27T04:36:40.000Z,99117
2022-12-27T04:38:46.000Z,99118
2022-12-27T04:40:13.000Z,99118
2022-12-27T04:42:19.000Z,99110
2022-12-27T04:43:45.000Z,99115
2022-12-27T04:45:52.000Z,99119
2022-12-27T04:47:18.000Z,99124
2022-12-27T04:49:24.000Z,99114
2022-12-27T04:50:51.000Z,99123
2022-12-27T04:52:57.000Z,99119
2022-12-27T04:54:23.000Z,99128
2022-12-27T04:56:30.000Z,99130
2022-12-27T04:57:56.000Z,99136
2022-12-27T05:00:02.000Z,99135
2022-12-27T05:01:29.000Z,99134
2022-12-27T05:03:35.000Z,99139
2022-12-27T05:05:02.000Z,99144
2022-12-27T05:07:08.000Z,99142
2022-12-27T05:08:34.000Z,99144
2022-12-27T05:10:40.000Z,99140
2022-12-27T05:13:31.000Z,99144
2022-12-27T05:14:58.000Z,99153
2022-12-27T05:17:04.000Z,99151
2022-12-27T05:18:31.000Z,99157
2022-12-27T05:20:37.000Z,99161
2022-12-27T05:22:03.000Z,99160
2022-12-27T05:24:09.000Z,99163
2022-12-27T05:25:36.000Z,99162
2022-12-27T05:27:42.000Z,99166
2022-12-27T05:29:08.000Z,99168
2022-12-27T05:31:14.000Z,99174
2022-12-27T05:32:41.000Z,99169
2022-12-27T05:34:47.000Z,99174
2022-12-27T05:36:14.000Z,99174
2022-12-27T05:38:20.000Z,99174
2022-12-27T05:39:46.000Z,99179
2022-12-27T05:41:52.000Z,99178
2022-12-27T05:43:19.000Z,99180
2022-12-27T05:45:25.000Z,99180
2022-12-27T05:46:52.000Z,99181
2022-12-27T05:48:58.000Z,99180
2022-12-27T05:51:49.000Z,99182
2022-12-27T05:53:15.000Z,99183
2022-12-27T05:55:21.000Z,99175
2022-12-27T05:56:48.000Z,99186
2022-12-27T05:58:54.000Z,99191
2022-12-27T06:00:21.000Z,99192
2022-12-27T06:02:27.000Z,99187
2022-12-27T06:03:54.000Z,99187
2022-12-27T06:06:00.000Z,99192
2022-12-27T06:07:27.000Z,99189
2022-12-27T06:09:33.000Z,99190
2022-12-27T06:10:59.000Z,99194
2022-12-27T06:13:05.000Z,99199
2022-12-27T06:14:32.000Z,99200
2022-12-27T06:16:38.000Z,99202
2022-12-27T06:18:04.000Z,99207
2022-12-27T06:20:10.000Z,99206
2022-12-27T06:21:37.000Z,99208
2022-12-27T06:23:43.000Z,99205
2022-12-27T06:25:10.000Z,99206
2022-12-27T06:27:20.000Z,99206
2022-12-27T06:30:11.000Z,99204
2022-12-27T06:31:38.000Z,99204
2022-12-27T06:33:44.000Z,99206
2022-12-27T06:35:10.000Z,99210
2022-12-27T06:37:16.000Z,99216
2022-12-27T06:38:43.000Z,99217
2022-12-27T06:40:49.000Z,99222
2022-12-27T06:42:16.000Z,99219
2022-12-27T06:44:22.000Z,99214
2022-12-27T06:45:48.000Z,99215
2022-12-27T06:47:54.000Z,99220
2022-12-27T06:49:21.000Z,99221
2022-12-27T06:51:27.000Z,99230
2022-12-27T06:52:53.000Z,99235
2022-12-27T06:55:00.000Z,99241
2022-12-27T06:56:26.000Z,99242
2022-12-27T06:58:32.000Z,99245
2022-12-27T06:59:59.000Z,99246
2022-12-27T07:02:05.000Z,99244
2022-12-27T07:03:32.000Z,99248
2022-12-27T07:05:38.000Z,99244
2022-12-27T07:08:29.000Z,99235
2022-12-27T07:09:56.000Z,99235
2022-12-27T07:12:02.000Z,99235
2022-12-27T07:13:28.000Z,99235
2022-12-27T07:15:34.000Z,99236
2022-12-27T07:17:01.000Z,99235
2022-12-27T07:19:07.000Z,99236
2022-12-27T07:20:34.000Z,99234
2022-12-27T07:22:40.000Z,99233
2022-12-27T07:24:06.000Z,99235
2022-12-27T07:26:12.000Z,99236
2022-12-27T07:27:39.000Z,99242
2022-12-27T07:29:45.000Z,99241
2022-12-27T07:31:12.000Z,99244
2022-12-27T07:33:18.000Z,99240
2022-12-27T07:34:44.000Z,99245
2022-12-27T07:36:51.000Z,99256
2022-12-27T07:38:17.000Z,99252
2022-12-27T07:40:23.000Z,99257
2022-12-27T07:41:50.000Z,99255
2022-12-27T07:43:56.000Z,99249
2022-12-27T07:46:47.000Z,99262
2022-12-27T07:48:13.000Z,99257
2022-12-27T07:50:19.000Z,99261
2022-12-27T07:51:46.000Z,99262
2022-12-27T07:53:52.000Z,99260
2022-12-27T07:55:19.000Z,99265
2022-12-27T07:57:25.000Z,99267
2022-12-27T07:58:51.000Z,99274
2022-12-27T08:00:58.000Z,99279
2022-12-27T08:02:24.000Z,99276
2022-12-27T08:04:31.000Z,99281
2022-12-27T08:05:57.000Z,99280
2022-12-27T08:08:03.000Z,99280
2022-12-27T08:09:30.000Z,99282
2022-12-27T08:11:36.000Z,99284
2022-12-27T08:13:03.000Z,99286
2022-12-27T08:15:09.000Z,99289
2022-12-27T08:16:35.000Z,99285
2022-12-27T08:18:42.000Z,99282
2022-12-27T08:20:08.000Z,99279
2022-12-27T08:22:14.000Z,99282
2022-12-27T08:25:06.000Z,99286
2022-12-27T08:26:32.000Z,99280
2022-12-27T08:28:38.000Z,99285
2022-12-27T08:30:05.000Z,99280
2022-12-27T08:32:11.000Z,99280
2022-12-27T08:33:37.000Z,99279
2022-12-27T08:35:43.000Z,99281
2022-12-27T08:37:20.000Z,99279
2022-12-27T08:39:26.000Z,99287
2022-12-27T08:40:53.000Z,99289
2022-12-27T08:42:59.000Z,99287
2022-12-27T08:44:26.000Z,99288
2022-12-27T08:46:32.000Z,99297
2022-12-27T08:47:58.000Z,99295
2022-12-27T08:50:05.000Z,99290
2022-12-27T08:51:31.000Z,99295
2022-12-27T08:53:47.000Z,99296
2022-12-27T08:55:13.000Z,99304
2022-12-27T08:57:19.000Z,99306
2022-12-27T08:58:46.000Z,99315
2022-12-27T09:00:52.000Z,99312
2022-12-27T09:03:43.000Z,99320
2022-12-27T09:05:09.000Z,99330
2022-12-27T09:07:16.000Z,99326
2022-12-27T09:08:42.000Z,99337
2022-12-27T09:10:48.000Z,99338
2022-12-27T09:12:15.000Z,99339
2022-12-27T09:14:21.000Z,99343
2022-12-27T09:15:47.000Z,99345
2022-12-27T09:17:53.000Z,99344
2022-12-27T09:19:20.000Z,99345
2022-12-27T09:21:26.000Z,99347
2022-12-27T09:22:53.000Z,99339
2022-12-27T09:24:59.000Z,99346
2022-12-27T09:26:26.000Z,99350
2022-12-27T09:28:32.000Z,99350
2022-12-27T09:29:58.000Z,99359
2022-12-27T09:32:04.000Z,99358
2022-12-27T09:33:31.000Z,99364
2022-12-27T09:35:37.000Z,99364
2022-12-27T09:37:05.000Z,99365
2022-12-27T09:39:11.000Z,99363
2022-12-27T09:43:59.000Z,99361
2022-12-27T09:46:05.000Z,99360
2022-12-27T09:47:31.000Z,99361
2022-12-27T09:49:37.000Z,99362
2022-12-27T09:51:04.000Z,99365
2022-12-27T09:53:10.000Z,99365
2022-12-27T09:54:37.000Z,99366
2022-12-27T09:56:43.000Z,99360
2022-12-27T09:58:44.000Z,99354
2022-12-27T10:00:51.000Z,99358
2022-12-27T10:02:17.000Z,99364
2022-12-27T10:04:23.000Z,99367
2022-12-27T10:05:53.000Z,99355
2022-12-27T10:08:02.000Z,99351
2022-12-27T10:09:29.000Z,99346
2022-12-27T10:11:35.000Z,99349
2022-12-27T10:13:01.000Z,99351
2022-12-27T10:15:07.000Z,99355
2022-12-27T10:16:34.000Z,99361
2022-12-27T10:18:40.000Z,99352
2022-12-27T10:21:31.000Z,99350
2022-12-27T10:22:58.000Z,99352
2022-12-27T10:26:44.000Z,99350
2022-12-27T10:28:48.000Z,99344
2022-12-27T10:30:19.000Z,99342
2022-12-27T10:32:25.000Z,99339
2022-12-27T10:33:51.000Z,99339
2022-12-27T10:35:58.000Z,99336
2022-12-27T10:37:24.000Z,99340
2022-12-27T10:39:30.000Z,99335
2022-12-27T10:40:57.000Z,99338
2022-12-27T10:43:03.000Z,99342
2022-12-27T10:44:30.000Z,99346
2022-12-27T10:46:36.000Z,99339
2022-12-27T10:48:02.000Z,99340
2022-12-27T10:50:08.000Z,99333
2022-12-27T10:51:35.000Z,99335
2022-12-27T10:53:41.000Z,99333
2022-12-27T10:55:07.000Z,99327
2022-12-27T10:57:13.000Z,99326
2022-12-27T10:58:40.000Z,99326
2022-12-27T11:00:46.000Z,99330
2022-12-27T11:02:13.000Z,99330
2022-12-27T11:04:19.000Z,99333
2022-12-27T11:07:12.000Z,99342
2022-12-27T11:08:38.000Z,99340
2022-12-27T11:10:44.000Z,99338
2022-12-27T11:12:11.000Z,99342
2022-12-27T11:14:17.000Z,99343
2022-12-27T11:15:44.000Z,99345
2022-12-27T11:17:50.000Z,99348
2022-12-27T11:19:17.000Z,99349
2022-12-27T11:21:23.000Z,99355
2022-12-27T11:22:54.000Z,99357
2022-12-27T11:25:00.000Z,99352
2022-12-27T11:26:27.000Z,99356
2022-12-27T11:28:33.000Z,99356
2022-12-27T11:29:59.000Z,99357
2022-12-27T11:32:05.000Z,99350
2022-12-27T11:33:32.000Z,99357
2022-12-27T11:35:38.000Z,99354
2022-12-27T11:37:05.000Z,99356
2022-12-27T11:39:11.000Z,99347
2022-12-27T11:40:37.000Z,99348
2022-12-27T11:42:43.000Z,99342
2022-12-27T11:45:35.000Z,99334
2022-12-27T11:47:01.000Z,99341
2022-12-27T11:49:07.000Z,99339
2022-12-27T11:50:34.000Z,99339
2022-12-27T11:52:40.000Z,99339
2022-12-27T11:54:06.000Z,99334
2022-12-27T11:56:13.000Z,99340
2022-12-27T11:57:39.000Z,99339
2022-12-27T11:59:45.000Z,99337
2022-12-27T12:01:12.000Z,99340
2022-12-27T12:03:18.000Z,99334
2022-12-27T12:04:44.000Z,99335
2022-12-27T12:06:51.000Z,99338
2022-12-27T12:08:17.000Z,99338
2022-12-27T12:10:23.000Z,99340
2022-12-27T12:11:50.000Z,99334
2022-12-27T12:14:01.000Z,99336
2022-12-27T12:15:27.000Z,99339
2022-12-27T12:17:33.000Z,99334
2022-12-27T12:19:02.000Z,99330
2022-12-27T12:21:09.000Z,99334
2022-12-27T12:24:00.000Z,99338
2022-12-27T12:25:26.000Z,99338
2022-12-27T12:27:32.000Z,99335
2022-12-27T12:28:59.000Z,99341
2022-12-27T12:31:06.000Z,99335
2022-12-27T12:32:33.000Z,99335
2022-12-27T12:34:39.000Z,99338
2022-12-27T12:36:05.000Z,99337
2022-12-27T12:38:11.000Z,99343
2022-12-27T12:39:38.000Z,99349
2022-12-27T12:41:44.000Z,99343
2022-12-27T12:43:11.000Z,99346
2022-12-27T12:45:17.000Z,99340
2022-12-27T12:46:43.000Z,99341
2022-12-27T12:48:49.000Z,99341
2022-12-27T12:50:16.000Z,99337
2022-12-27T12:52:22.000Z,99339
2022-12-27T12:53:49.000Z,99335
2022-12-27T12:55:55.000Z,99336
2022-12-27T12:57:21.000Z,99336
2022-12-27T12:59:27.000Z,99332
2022-12-27T13:02:18.000Z,99339
2022-12-27T13:03:45.000Z,99339
2022-12-27T13:05:51.000Z,99335
2022-12-27T13:07:18.000Z,99328
2022-12-27T13:09:24.000Z,99329
2022-12-27T13:10:51.000Z,99320
2022-12-27T13:12:57.000Z,99320
2022-12-27T13:14:23.000Z,99321
2022-12-27T13:16:29.000Z,99325
2022-12-27T13:17:56.000Z,99323
2022-12-27T13:20:02.000Z,99328
2022-12-27T13:21:29.000Z,99330
2022-12-27T13:23:35.000Z,99332
2022-12-27T13:25:02.000Z,99344
2022-12-27T13:27:08.000Z,99348
2022-12-27T13:28:34.000Z,99344
2022-12-27T13:30:40.000Z,99355
2022-12-27T13:32:07.000Z,99349
2022-12-27T13:34:13.000Z,99355
2022-12-27T13:35:40.000Z,99360
2022-12-27T13:37:46.000Z,99352
2022-12-27T13:40:37.000Z,99352
2022-12-27T13:42:04.000Z,99349
2022-12-27T13:44:10.000Z,99347
2022-12-27T13:45:36.000Z,99346
2022-12-27T13:47:42.000Z,99349
2022-12-27T13:49:09.000Z,99346
2022-12-27T13:51:15.000Z,99348
2022-12-27T13:52:42.000Z,99338
2022-12-27T13:54:48.000Z,99337
2022-12-27T13:56:14.000Z,99337
2022-12-27T13:58:59.000Z,99330
2022-12-27T14:00:26.000Z,99325
2022-12-27T14:02:32.000Z,99316
2022-12-27T14:03:59.000Z,99313
2022-12-27T14:06:05.000Z,99315
2022-12-27T14:07:32.000Z,99319
2022-12-27T14:09:38.000Z,99315
2022-12-27T14:11:04.000Z,99310
2022-12-27T14:13:10.000Z,99308
2022-12-27T14:14:37.000Z,99309
2022-12-27T14:16:43.000Z,99318
2022-12-27T14:19:34.000Z,99310
2022-12-27T14:21:01.000Z,99311
2022-12-27T14:23:07.000Z,99315
2022-12-27T14:24:33.000Z,99319
2022-12-27T14:26:39.000Z,99324
2022-12-27T14:28:06.000Z,99318
2022-12-27T14:30:12.000Z,99316
2022-12-27T14:31:39.000Z,99316
2022-12-27T14:33:45.000Z,99316
2022-12-27T14:35:11.000Z,99318
2022-12-27T14:37:17.000Z,99312
2022-12-27T14:38:44.000Z,99309
2022-12-27T14:40:50.000Z,99308
2022-12-27T14:42:17.000Z,99305
2022-12-27T14:44:23.000Z,99299
2022-12-27T14:45:49.000Z,99300
2022-12-27T14:49:36.000Z,99300
2022-12-27T14:50:32.000Z,99296
2022-12-27T14:51:59.000Z,99305
2022-12-27T14:54:09.000Z,99306
2022-12-27T14:55:36.000Z,99307
2022-12-27T14:57:42.000Z,99306
2022-12-27T15:00:27.000Z,99308
2022-12-27T15:01:53.000Z,99304
2022-12-27T15:03:59.000Z,99302
2022-12-27T15:05:26.000Z,99301
2022-12-27T15:07:32.000Z,99301
2022-12-27T15:08:59.000Z,99298
2022-12-27T15:12:45.000Z,99306
2022-12-27T15:13:19.000Z,99305
2022-12-27T15:14:45.000Z,99306
2022-12-27T15:16:52.000Z,99303
2022-12-27T15:18:18.000Z,99299
2022-12-27T15:20:24.000Z,99296
2022-12-27T15:21:51.000Z,99297
2022-12-27T15:23:57.000Z,99291
2022-12-27T15:25:23.000Z,99293
2022-12-27T15:27:29.000Z,99295
2022-12-27T15:28:56.000Z,99292
2022-12-27T15:31:02.000Z,99282
2022-12-27T15:32:29.000Z,99281
2022-12-27T15:34:35.000Z,99279
2022-12-27T15:36:01.000Z,99278
2022-12-27T15:38:07.000Z,99276
2022-12-27T15:40:53.000Z,99283
2022-12-27T15:42:19.000Z,99284
2022-12-27T15:44:25.000Z,99284
2022-12-27T15:45:52.000Z,99284
2022-12-27T15:47:58.000Z,99287
2022-12-27T15:49:24.000Z,99288
2022-12-27T15:51:30.000Z,99283
2022-12-27T15:52:57.000Z,99284
2022-12-27T15:55:03.000Z,99276
2022-12-27T15:56:30.000Z,99279
2022-12-27T15:58:36.000Z,99280
2022-12-27T16:00:02.000Z,99275
2022-12-27T16:02:08.000Z,99276
2022-12-27T16:03:35.000Z,99279
2022-12-27T16:05:41.000Z,99277
2022-12-27T16:07:08.000Z,99271
2022-12-27T16:09:14.000Z,99272
2022-12-27T16:10:41.000Z,99268
2022-12-27T16:12:47.000Z,99263
2022-12-27T16:14:13.000Z,99270
2022-12-27T16:16:19.000Z,99268
2022-12-27T16:19:11.000Z,99266
2022-12-27T16:20:37.000Z,99264
2022-12-27T16:22:44.000Z,99270
2022-12-27T16:24:10.000Z,99269
2022-12-27T16:26:16.000Z,99272
2022-12-27T16:27:43.000Z,99278
2022-12-27T16:29:49.000Z,99274
2022-12-27T16:31:15.000Z,99274
2022-12-27T16:33:21.000Z,99278
2022-12-27T16:34:48.000Z,99276
2022-12-27T16:36:54.000Z,99274
2022-12-27T16:38:21.000Z,99272
2022-12-27T16:40:27.000Z,99262
2022-12-27T16:41:53.000Z,99266
2022-12-27T16:43:59.000Z,99270
2022-12-27T16:45:26.000Z,99274
2022-12-27T16:47:32.000Z,99280
2022-12-27T16:48:59.000Z,99278
2022-12-27T16:51:05.000Z,99283
2022-12-27T16:52:31.000Z,99279
2022-12-27T16:54:37.000Z,99275
2022-12-27T16:57:29.000Z,99276
2022-12-27T16:58:55.000Z,99275
2022-12-27T17:01:01.000Z,99274
2022-12-27T17:02:28.000Z,99266
2022-12-27T17:04:34.000Z,99261
2022-12-27T17:06:01.000Z,99264
2022-12-27T17:08:39.000Z,99267
2022-12-27T17:10:06.000Z,99259
2022-12-27T17:12:12.000Z,99264
2022-12-27T17:13:39.000Z,99269
2022-12-27T17:15:45.000Z,99259
2022-12-27T17:17:15.000Z,99264
2022-12-27T17:19:22.000Z,99264
2022-12-27T17:20:48.000Z,99265
2022-12-27T17:22:54.000Z,99255
2022-12-27T17:24:21.000Z,99254
2022-12-27T17:26:27.000Z,99260
2022-12-27T17:27:54.000Z,99255
2022-12-27T17:30:00.000Z,99254
2022-12-27T17:31:26.000Z,99256
2022-12-27T17:33:33.000Z,99251
2022-12-27T17:36:24.000Z,99253
2022-12-27T17:37:51.000Z,99252
2022-12-27T17:39:57.000Z,99259
2022-12-27T17:41:23.000Z,99259
2022-12-27T17:43:29.000Z,99262
2022-12-27T17:44:56.000Z,99254
2022-12-27T17:47:02.000Z,99264
2022-12-27T17:48:29.000Z,99258
2022-12-27T17:50:35.000Z,99256
2022-12-27T17:52:01.000Z,99252
2022-12-27T17:54:07.000Z,99252
2022-12-27T17:55:34.000Z,99260
2022-12-27T17:57:40.000Z,99251
2022-12-27T17:59:07.000Z,99251
2022-12-27T18:01:13.000Z,99247
2022-12-27T18:02:39.000Z,99247
2022-12-27T18:04:46.000Z,99248
2022-12-27T18:06:12.000Z,99250
2022-12-27T18:08:18.000Z,99249
2022-12-27T18:09:45.000Z,99254
2022-12-27T18:11:51.000Z,99252
2022-12-27T18:14:42.000Z,99248
2022-12-27T18:16:09.000Z,99248
2022-12-27T18:18:15.000Z,99244
2022-12-27T18:19:42.000Z,99245
2022-12-27T18:21:48.000Z,99249
2022-12-27T18:23:15.000Z,99246
2022-12-27T18:25:21.000Z,99256
2022-12-27T18:26:47.000Z,99254
2022-12-27T18:28:53.000Z,99254
2022-12-27T18:30:20.000Z,99250
2022-12-27T18:32:26.000Z,99248
2022-12-27T18:33:52.000Z,99249
2022-12-27T18:35:59.000Z,99253
2022-12-27T18:37:25.000Z,99250
2022-12-27T18:39:31.000Z,99255
2022-12-27T18:40:58.000Z,99252
2022-12-27T18:43:04.000Z,99252
2022-12-27T18:44:30.000Z,99256
2022-12-27T18:46:37.000Z,99256
2022-12-27T18:48:03.000Z,99249
2022-12-27T18:50:09.000Z,99258
2022-12-27T18:53:01.000Z,99251
2022-12-27T18:54:27.000Z,99250
2022-12-27T18:56:33.000Z,99244
2022-12-27T18:58:00.000Z,99238
2022-12-27T19:00:06.000Z,99238
2022-12-27T19:01:33.000Z,99241
2022-12-27T19:03:39.000Z,99231
2022-12-27T19:05:07.000Z,99233
2022-12-27T19:07:13.000Z,99236
2022-12-27T19:08:40.000Z,99229
2022-12-27T19:10:46.000Z,99228
2022-12-27T19:12:12.000Z,99229
2022-12-27T19:14:18.000Z,99233
2022-12-27T19:15:45.000Z,99230
2022-12-27T19:17:51.000Z,99228
2022-12-27T19:19:18.000Z,99229
2022-12-27T19:21:24.000Z,99224
2022-12-27T19:22:50.000Z,99219
2022-12-27T19:24:56.000Z,99217
2022-12-27T19:26:23.000Z,99214
2022-12-27T19:28:29.000Z,99215
2022-12-27T19:31:21.000Z,99206
2022-12-27T19:32:48.000Z,99210
2022-12-27T19:34:54.000Z,99211
2022-12-27T19:36:20.000Z,99205
2022-12-27T19:38:27.000Z,99201
2022-12-27T19:39:53.000Z,99198
2022-12-27T19:41:59.000Z,99194
2022-12-27T19:43:27.000Z,99194
2022-12-27T19:45:33.000Z,99186
2022-12-27T19:47:00.000Z,99184
2022-12-27T19:49:07.000Z,99186
2022-12-27T19:51:08.000Z,99182
2022-12-27T19:53:14.000Z,99183
2022-12-27T19:54:41.000Z,99192
2022-12-27T19:56:47.000Z,99182
2022-12-27T19:58:14.000Z,99173
2022-12-27T20:00:20.000Z,99164
2022-12-27T20:01:46.000Z,99162
2022-12-27T20:03:53.000Z,99162
2022-12-27T20:05:19.000Z,99157
2022-12-27T20:08:21.000Z,99150
2022-12-27T20:11:13.000Z,99147
2022-12-27T20:12:39.000Z,99153
2022-12-27T20:14:45.000Z,99153
2022-12-27T20:16:12.000Z,99149
2022-12-27T20:18:18.000Z,99145
2022-12-27T20:19:45.000Z,99138
2022-12-27T20:21:51.000Z,99138
2022-12-27T20:23:17.000Z,99140
2022-12-27T20:25:23.000Z,99133
2022-12-27T20:26:50.000Z,99135
2022-12-27T20:28:56.000Z,99134
2022-12-27T20:30:22.000Z,99136
2022-12-27T20:32:29.000Z,99136
2022-12-27T20:33:55.000Z,99138
2022-12-27T20:36:01.000Z,99137
2022-12-27T20:37:28.000Z,99139
2022-12-27T20:39:34.000Z,99137
2022-12-27T20:41:00.000Z,99141
2022-12-27T20:43:07.000Z,99137
2022-12-27T20:44:33.000Z,99138
2022-12-27T20:46:39.000Z,99142
2022-12-27T20:49:30.000Z,99137
2022-12-27T20:50:57.000Z,99140
2022-12-27T20:53:03.000Z,99138
2022-12-27T20:54:29.000Z,99134
2022-12-27T20:56:35.000Z,99132
2022-12-27T20:58:02.000Z,99131
2022-12-27T21:00:08.000Z,99131
2022-12-27T21:01:35.000Z,99125
2022-12-27T21:03:42.000Z,99123
2022-12-27T21:05:09.000Z,99112
2022-12-27T21:07:15.000Z,99108
2022-12-27T21:08:41.000Z,99104
2022-12-27T21:10:55.000Z,99098
2022-12-27T21:12:21.000Z,99100
2022-12-27T21:14:27.000Z,99093
2022-12-27T21:15:54.000Z,99095
2022-12-27T21:18:00.000Z,99105
2022-12-27T21:19:27.000Z,99103
2022-12-27T21:21:33.000Z,99104
2022-12-27T21:22:59.000Z,99108
2022-12-27T21:25:06.000Z,99105
2022-12-27T21:27:57.000Z,99097
2022-12-27T21:29:23.000Z,99096
2022-12-27T21:31:29.000Z,99090
2022-12-27T21:32:56.000Z,99095
2022-12-27T21:35:02.000Z,99093
2022-12-27T21:36:28.000Z,99090
2022-12-27T21:38:35.000Z,99078
2022-12-27T21:40:01.000Z,99077
2022-12-27T21:42:07.000Z,99066
2022-12-27T21:43:34.000Z,99069
2022-12-27T21:45:40.000Z,99066
2022-12-27T21:47:06.000Z,99064
2022-12-27T21:49:12.000Z,99060
2022-12-27T21:50:39.000Z,99060
2022-12-27T21:52:45.000Z,99065
2022-12-27T21:54:12.000Z,99061
2022-12-27T21:56:18.000Z,99057
2022-12-27T21:57:44.000Z,99060
2022-12-27T21:59:50.000Z,99061
2022-12-27T22:01:17.000Z,99053
2022-12-27T22:03:23.000Z,99057
2022-12-27T22:06:15.000Z,99055
2022-12-27T22:07:42.000Z,99054
2022-12-27T22:09:48.000Z,99053
2022-12-27T22:11:14.000Z,99048
2022-12-27T22:13:20.000Z,99048
2022-12-27T22:14:47.000Z,99049
2022-12-27T22:16:53.000Z,99048
2022-12-27T22:18:19.000Z,99045
2022-12-27T22:20:25.000Z,99044
2022-12-27T22:21:52.000Z,99038
2022-12-27T22:23:58.000Z,99036
2022-12-27T22:25:25.000Z,99040
2022-12-27T22:27:31.000Z,99034
2022-12-27T22:28:57.000Z,99034
2022-12-27T22:31:04.000Z,99032
2022-12-27T22:32:30.000Z,99031
2022-12-27T22:34:37.000Z,99034
2022-12-27T22:36:03.000Z,99034
2022-12-27T22:38:09.000Z,99034
2022-12-27T22:39:36.000Z,99036
2022-12-27T22:41:42.000Z,99033
2022-12-27T22:44:33.000Z,99031
2022-12-27T22:46:00.000Z,99030
2022-12-27T22:48:06.000Z,99034
2022-12-27T22:49:32.000Z,99028
2022-12-27T22:51:38.000Z,99030
2022-12-27T22:53:05.000Z,99027
2022-12-27T22:55:11.000Z,99025
2022-12-27T22:56:38.000Z,99028
2022-12-27T22:58:44.000Z,99019
2022-12-27T23:00:10.000Z,99020
2022-12-27T23:02:16.000Z,99027
2022-12-27T23:03:43.000Z,99022
2022-12-27T23:05:49.000Z,99027
2022-12-27T23:07:16.000Z,99024
2022-12-27T23:09:22.000Z,99023
2022-12-27T23:10:49.000Z,99017
2022-12-27T23:12:55.000Z,99021
2022-12-27T23:14:21.000Z,99018
2022-12-27T23:16:27.000Z,99019
2022-12-27T23:17:54.000Z,99017
2022-12-27T23:20:00.000Z,99016
2022-12-27T23:22:51.000Z,99020
2022-12-27T23:24:18.000Z,99017
2022-12-27T23:26:24.000Z,99009
2022-12-27T23:27:50.000Z,99013
2022-12-27T23:29:57.000Z,99008
2022-12-27T23:31:23.000Z,98996
2022-12-27T23:33:29.000Z,98997
2022-12-27T23:34:56.000Z,98985
2022-12-27T23:37:02.000Z,98984
2022-12-27T23:38:28.000Z,98980